CYPX

Puvirnituq Airport

Puvirnituq, Quebec, Canada
METAR CYPX 160100Z AUTO 26009KT 9SM -SN OVC016 M11/M12 A2977 RMK SLP086
Observed Flight Rules
Dec-16 @ 01:00 UTC (38 minutes ago) Marginal Visual Flight Rules
Wind Visibility Clouds Conditions
260° at 9 knots 9 miles
  • Overcast at 1,600' AGL
  • Light Snow
Temperatures Readings
Current -11°C / 12°F
Dewpoint -12°C / 10°F
Humidity 92%
Altimeter 29.77" Hg
Pressure 1008.6 hPa
Elevation 23
METAR CYPX 160100Z AUTO 26009KT 9SM -SN OVC016 M11/M12 A2977 RMK SLP086
Observed Flight Rules
Dec-16 @ 01:00 UTC
(38 minutes ago)
MVFR
Wind Visibility
260° at 9 knots 9 miles
Clouds
  • Overcast at 1,600' AGL
Conditions
  • Light Snow
Temperature Dewpoint
-11°C / 12°F -12°C / 10°F
Humidity Altimeter Pressure
92% 29.77" Hg 1008.6 hPa